Time;durP1;ratioP1;P1;durP2;ratioP2;P2;SDS_P1;SDS_P2;PMS_P1;PMS_P2;Temp;Humidity;BMP_temperature;BMP_pressure;BME280_temperature;BME280_humidity;BME280_pressure;Samples;Min_cycle;Max_cycle;Signal;HPM_P1;HPM_P2
2022/05/10 00:01:32;;;;;;;4.32;2.67;;;12.90;55.60;;;;;;620093;229;26572;-64
2022/05/10 00:04:00;;;;;;;3.60;2.60;;;12.80;55.40;;;;;;617239;233;26633;-63
2022/05/10 00:06:26;;;;;;;3.83;2.37;;;12.90;55.00;;;;;;617294;233;26650;-63
2022/05/10 00:08:53;;;;;;;3.30;2.30;;;12.90;55.00;;;;;;619239;230;26874;-63
2022/05/10 00:11:20;;;;;;;3.00;2.47;;;12.90;55.10;;;;;;625672;230;26554;-63
2022/05/10 00:13:48;;;;;;;4.22;2.35;;;12.90;54.90;;;;;;625587;229;26784;-64
2022/05/10 00:16:15;;;;;;;2.15;2.05;;;12.90;55.00;;;;;;626290;228;26554;-64
2022/05/10 00:18:42;;;;;;;3.58;2.20;;;12.80;55.40;;;;;;625189;230;27223;-64
2022/05/10 00:21:09;;;;;;;4.03;2.28;;;12.80;55.30;;;;;;624981;230;26551;-64
2022/05/10 00:23:36;;;;;;;4.53;2.47;;;12.80;55.90;;;;;;625148;230;26824;-63
2022/05/10 00:26:04;;;;;;;2.92;2.67;;;12.80;56.70;;;;;;624245;230;26543;-64
2022/05/10 00:28:31;;;;;;;3.40;2.12;;;12.80;55.70;;;;;;625578;228;26548;-63
2022/05/10 00:30:59;;;;;;;2.72;2.30;;;12.70;55.20;;;;;;624794;230;26587;-63
2022/05/10 00:33:27;;;;;;;2.53;2.33;;;12.70;54.90;;;;;;624863;230;26587;-63
2022/05/10 00:35:55;;;;;;;4.20;2.70;;;12.60;56.20;;;;;;623230;229;26542;-63
2022/05/10 00:38:22;;;;;;;3.15;2.58;;;12.60;56.20;;;;;;618947;230;26574;-63
2022/05/10 00:40:49;;;;;;;4.90;2.75;;;12.60;56.40;;;;;;620564;229;26569;-63
2022/05/10 00:43:19;;;;;;;4.68;2.50;;;12.50;56.30;;;;;;621009;229;27285;-64
2022/05/10 00:45:54;;;;;;;2.47;2.28;;;12.60;55.90;;;;;;625557;230;26532;-64
2022/05/10 00:48:28;;;;;;;2.75;2.15;;;12.50;55.60;;;;;;624906;229;26879;-64
2022/05/10 00:50:59;;;;;;;3.65;2.70;;;12.50;55.80;;;;;;617883;233;26650;-64
2022/05/10 00:53:28;;;;;;;2.90;2.55;;;12.50;56.30;;;;;;625438;225;26613;-63
2022/05/10 00:55:57;;;;;;;2.78;2.20;;;12.60;56.30;;;;;;625643;229;26662;-63
2022/05/10 00:58:24;;;;;;;3.95;2.67;;;12.50;55.90;;;;;;626328;229;26558;-63
2022/05/10 01:00:52;;;;;;;2.90;2.62;;;12.40;57.20;;;;;;626226;229;26528;-63
2022/05/10 01:03:23;;;;;;;4.20;2.53;;;12.50;56.90;;;;;;626352;229;26574;-63
2022/05/10 01:05:52;;;;;;;2.33;2.00;;;12.40;56.70;;;;;;625814;229;26560;-63
2022/05/10 01:08:21;;;;;;;2.37;2.20;;;12.40;56.10;;;;;;625747;229;27204;-63
2022/05/10 01:10:48;;;;;;;3.65;2.28;;;12.40;57.00;;;;;;626231;229;26821;-63
2022/05/10 01:13:22;;;;;;;2.58;2.17;;;12.50;56.60;;;;;;624249;226;26584;-63
2022/05/10 01:15:50;;;;;;;3.58;2.42;;;12.40;56.80;;;;;;622848;229;26561;-63
2022/05/10 01:18:18;;;;;;;2.40;2.20;;;12.30;56.90;;;;;;625996;230;26551;-63
2022/05/10 01:20:46;;;;;;;3.53;2.62;;;12.30;57.40;;;;;;625142;230;26591;-63
2022/05/10 01:23:34;;;;;;;2.80;2.42;;;12.30;57.40;;;;;;623824;230;26570;-63
2022/05/10 01:26:02;;;;;;;2.78;2.30;;;12.30;57.20;;;;;;620765;230;26554;-64
2022/05/10 01:28:31;;;;;;;2.42;2.22;;;12.20;56.90;;;;;;622229;230;26562;-64
2022/05/10 01:30:58;;;;;;;3.03;2.72;;;12.20;56.90;;;;;;619424;230;26604;-63
2022/05/10 01:33:30;;;;;;;6.00;2.60;;;12.20;57.00;;;;;;619777;230;26623;-63
2022/05/10 01:36:00;;;;;;;2.37;2.17;;;12.20;56.90;;;;;;624950;230;26602;-63
2022/05/10 01:38:28;;;;;;;5.57;2.58;;;12.20;56.90;;;;;;622741;230;26583;-63
2022/05/10 01:40:55;;;;;;;4.30;2.60;;;12.10;57.00;;;;;;626094;230;26545;-63
2022/05/10 01:43:25;;;;;;;2.95;2.58;;;12.10;57.50;;;;;;623070;226;26589;-67
2022/05/10 01:45:53;;;;;;;2.50;2.30;;;12.00;57.50;;;;;;620965;230;26633;-68
2022/05/10 01:48:21;;;;;;;2.50;2.20;;;12.00;57.60;;;;;;625601;230;26782;-68
2022/05/10 01:50:50;;;;;;;3.20;2.60;;;11.90;58.50;;;;;;625009;227;26962;-68
2022/05/10 01:53:18;;;;;;;2.37;2.17;;;11.90;58.40;;;;;;626237;227;26638;-67
2022/05/10 01:55:46;;;;;;;2.58;2.37;;;11.90;57.50;;;;;;626993;229;26551;-68
2022/05/10 01:58:21;;;;;;;3.62;2.45;;;11.90;57.40;;;;;;626800;229;26563;-68
2022/05/10 02:00:55;;;;;;;3.75;2.22;;;11.90;58.70;;;;;;625970;229;26790;-68
2022/05/10 02:03:26;;;;;;;2.78;2.45;;;11.90;58.10;;;;;;625947;229;26842;-68
2022/05/10 02:06:13;;;;;;;2.95;2.37;;;11.90;58.40;;;;;;627970;229;26633;-68
2022/05/10 02:08:43;;;;;;;2.62;2.42;;;11.90;57.90;;;;;;625833;229;26537;-67
2022/05/10 02:11:11;;;;;;;2.53;2.30;;;11.80;58.00;;;;;;618732;229;26807;-67
2022/05/10 02:13:38;;;;;;;3.58;2.33;;;11.80;58.10;;;;;;621917;229;26583;-67
2022/05/10 02:16:06;;;;;;;2.62;2.42;;;11.80;57.70;;;;;;626112;229;26780;-69
2022/05/10 02:18:33;;;;;;;4.12;2.17;;;11.80;57.70;;;;;;623771;229;26539;-68
2022/05/10 02:21:13;;;;;;;4.03;2.60;;;11.70;58.20;;;;;;618225;229;26580;-68
2022/05/10 02:23:58;;;;;;;3.45;2.50;;;11.70;58.20;;;;;;621388;229;26582;-68
2022/05/10 02:26:25;;;;;;;2.87;2.40;;;11.70;58.60;;;;;;624814;229;26520;-68
2022/05/10 02:28:56;;;;;;;2.45;2.25;;;11.60;58.70;;;;;;624267;230;26570;-68
2022/05/10 02:31:24;;;;;;;2.85;2.42;;;11.60;58.70;;;;;;624420;230;26567;-68
2022/05/10 02:33:51;;;;;;;2.72;2.50;;;11.60;58.10;;;;;;617699;230;26587;-69
2022/05/10 02:36:19;;;;;;;2.85;2.37;;;11.60;58.20;;;;;;624601;230;26800;-68
2022/05/10 02:38:46;;;;;;;3.40;2.65;;;11.60;59.10;;;;;;624816;230;26559;-69
2022/05/10 02:41:14;;;;;;;4.12;2.62;;;11.50;58.20;;;;;;624794;230;26829;-68
2022/05/10 02:43:46;;;;;;;3.05;2.70;;;11.50;58.10;;;;;;625966;230;26614;-68
2022/05/10 02:46:13;;;;;;;2.50;2.30;;;11.50;58.10;;;;;;625917;230;26814;-68
2022/05/10 02:48:40;;;;;;;2.97;2.75;;;11.50;58.40;;;;;;617405;230;26616;-69
2022/05/10 02:51:08;;;;;;;3.15;2.62;;;11.50;58.40;;;;;;617466;230;26935;-68
2022/05/10 02:53:35;;;;;;;2.75;2.50;;;11.50;58.10;;;;;;618629;230;26623;-68
2022/05/10 02:56:06;;;;;;;3.00;2.37;;;11.50;58.60;;;;;;624847;230;26579;-68
2022/05/10 02:58:35;;;;;;;3.65;2.35;;;11.50;58.60;;;;;;624775;230;26802;-68
2022/05/10 03:01:20;;;;;;;5.55;2.87;;;11.40;58.50;;;;;;626036;227;26631;-68
2022/05/10 03:03:47;;;;;;;2.72;2.45;;;11.50;58.80;;;;;;617834;229;26655;-68
2022/05/10 03:06:17;;;;;;;2.67;2.47;;;11.40;58.90;;;;;;623228;229;26893;-68
2022/05/10 03:08:43;;;;;;;3.12;2.50;;;11.40;58.40;;;;;;626871;229;26883;-69
2022/05/10 03:11:11;;;;;;;2.67;2.37;;;11.40;58.70;;;;;;620718;229;26782;-67
2022/05/10 03:13:40;;;;;;;3.37;2.72;;;11.40;58.30;;;;;;625386;229;26586;-69
2022/05/10 03:16:08;;;;;;;6.68;3.25;;;11.40;58.40;;;;;;625396;230;26611;-68
2022/05/10 03:18:36;;;;;;;6.07;3.08;;;11.30;59.50;;;;;;621158;229;26656;-68
2022/05/10 03:21:04;;;;;;;3.47;2.80;;;11.30;59.40;;;;;;625121;228;26579;-68
2022/05/10 03:23:31;;;;;;;7.75;2.42;;;11.30;58.60;;;;;;625630;229;26813;-68
2022/05/10 03:25:58;;;;;;;2.78;2.50;;;11.30;58.60;;;;;;625282;229;26613;-68
2022/05/10 03:28:26;;;;;;;2.90;2.58;;;11.40;58.70;;;;;;625733;229;27052;-68
2022/05/10 03:30:53;;;;;;;2.78;2.58;;;11.40;57.80;;;;;;617709;233;26567;-68
2022/05/10 03:33:21;;;;;;;3.70;2.60;;;11.50;57.80;;;;;;620012;229;26582;-68
2022/05/10 03:35:49;;;;;;;3.20;2.58;;;11.50;58.00;;;;;;617639;233;26555;-68
2022/05/10 03:38:17;;;;;;;4.75;2.87;;;11.40;58.10;;;;;;621534;230;26602;-68
2022/05/10 03:40:45;;;;;;;2.50;2.30;;;11.40;58.10;;;;;;618771;230;26604;-67
2022/05/10 03:43:12;;;;;;;3.30;2.83;;;11.40;59.30;;;;;;626217;227;26583;-67
2022/05/10 03:45:39;;;;;;;3.20;2.58;;;11.40;58.50;;;;;;626547;228;26773;-67
2022/05/10 03:48:07;;;;;;;2.53;2.33;;;11.50;57.80;;;;;;626401;230;26550;-67
2022/05/10 03:50:35;;;;;;;2.80;2.50;;;11.50;57.30;;;;;;624729;230;26801;-67
2022/05/10 03:53:02;;;;;;;2.53;2.40;;;11.50;57.30;;;;;;619407;230;26847;-67
2022/05/10 03:55:29;;;;;;;3.40;2.50;;;11.50;58.20;;;;;;623412;230;26549;-67
2022/05/10 03:57:56;;;;;;;3.10;2.80;;;11.50;57.60;;;;;;623497;230;26809;-67
2022/05/10 04:00:24;;;;;;;3.47;2.80;;;11.50;57.90;;;;;;618985;230;26603;-68
2022/05/10 04:02:52;;;;;;;4.25;3.20;;;11.60;58.10;;;;;;625918;230;26597;-68
2022/05/10 04:05:19;;;;;;;2.65;2.45;;;11.50;58.00;;;;;;625441;230;26543;-68
2022/05/10 04:07:47;;;;;;;2.97;2.45;;;11.50;57.50;;;;;;625724;230;26563;-68
2022/05/10 04:10:13;;;;;;;3.03;2.58;;;11.60;57.90;;;;;;624892;230;26812;-68
2022/05/10 04:12:40;;;;;;;3.17;2.50;;;11.60;58.90;;;;;;621837;229;26693;-68
2022/05/10 04:15:08;;;;;;;4.30;2.50;;;11.60;58.00;;;;;;627077;229;26775;-68
2022/05/10 04:17:35;;;;;;;2.78;2.30;;;11.60;57.50;;;;;;626673;229;26556;-68
2022/05/10 04:20:06;;;;;;;3.15;2.80;;;11.70;58.00;;;;;;626800;229;26788;-67
2022/05/10 04:22:32;;;;;;;4.47;2.62;;;11.70;57.60;;;;;;625939;227;26564;-68
2022/05/10 04:24:59;;;;;;;3.05;2.80;;;11.80;58.30;;;;;;625672;229;26855;-67
2022/05/10 04:27:27;;;;;;;2.70;2.50;;;11.80;57.40;;;;;;622767;229;26603;-67
2022/05/10 04:29:54;;;;;;;4.12;2.40;;;11.80;58.50;;;;;;621730;229;26844;-67
2022/05/10 04:32:21;;;;;;;3.28;2.50;;;11.80;57.30;;;;;;625708;229;26591;-67
2022/05/10 04:34:49;;;;;;;3.62;2.37;;;11.90;57.80;;;;;;624884;229;26630;-68
2022/05/10 04:37:17;;;;;;;3.47;2.80;;;12.00;58.20;;;;;;621584;229;26560;-67
2022/05/10 04:42:18;;;;;;;3.08;2.28;;;12.10;58.50;;;;;;621148;229;26599;-67
2022/05/10 04:44:46;;;;;;;22.58;7.22;;;12.10;57.40;;;;;;624695;229;26552;-68
2022/05/10 04:47:14;;;;;;;34.28;8.68;;;12.10;57.40;;;;;;617685;233;26597;-68
2022/05/10 04:49:41;;;;;;;63.20;13.88;;;12.20;58.30;;;;;;622925;230;26594;-68
2022/05/10 04:52:08;;;;;;;8.45;3.85;;;12.30;59.00;;;;;;623807;227;26575;-67
2022/05/10 04:54:35;;;;;;;5.82;3.30;;;12.30;58.30;;;;;;627126;229;26704;-68
2022/05/10 04:57:04;;;;;;;11.18;4.30;;;12.40;57.60;;;;;;621582;229;26626;-68
2022/05/10 04:59:31;;;;;;;93.18;19.15;;;12.50;57.40;;;;;;625846;230;26552;-66
2022/05/10 05:01:58;;;;;;;87.12;19.35;;;12.60;57.80;;;;;;619195;230;26874;-67
2022/05/10 05:04:25;;;;;;;93.97;18.27;;;12.60;57.40;;;;;;617417;233;26640;-67
2022/05/10 05:06:53;;;;;;;78.78;18.42;;;12.80;59.20;;;;;;623899;230;26566;-67
2022/05/10 05:09:21;;;;;;;64.32;16.80;;;12.90;60.80;;;;;;622358;230;26634;-67
2022/05/10 05:11:49;;;;;;;68.65;15.30;;;13.00;58.40;;;;;;624564;230;26558;-68
2022/05/10 05:14:17;;;;;;;51.90;13.50;;;13.10;59.00;;;;;;626222;230;26549;-68
2022/05/10 05:16:45;;;;;;;48.05;12.95;;;13.20;57.80;;;;;;626202;230;26560;-68
2022/05/10 05:19:13;;;;;;;45.85;12.77;;;13.40;59.40;;;;;;621866;230;26611;-68
2022/05/10 05:21:42;;;;;;;52.10;13.18;;;13.40;58.40;;;;;;617430;233;26636;-68
2022/05/10 05:24:11;;;;;;;47.33;13.18;;;13.60;57.60;;;;;;623808;227;26626;-69
2022/05/10 05:26:37;;;;;;;40.38;11.45;;;13.70;57.40;;;;;;626247;228;26606;-69
2022/05/10 05:29:05;;;;;;;30.65;9.50;;;13.80;61.70;;;;;;622111;229;26565;-69
2022/05/10 05:31:33;;;;;;;30.75;8.77;;;13.80;59.00;;;;;;618223;232;26565;-68
2022/05/10 05:34:01;;;;;;;29.63;9.32;;;13.90;56.70;;;;;;618462;231;26606;-68
2022/05/10 05:36:29;;;;;;;22.70;8.38;;;14.00;57.70;;;;;;618389;233;26581;-68
2022/05/10 05:38:56;;;;;;;14.05;6.55;;;14.00;57.60;;;;;;618425;233;26594;-68
2022/05/10 05:41:23;;;;;;;14.95;6.45;;;14.20;60.30;;;;;;618382;233;26539;-68
2022/05/10 05:43:51;;;;;;;22.33;6.60;;;14.40;56.90;;;;;;617887;232;26582;-68
2022/05/10 05:46:18;;;;;;;2.92;2.72;;;14.50;61.20;;;;;;617739;233;26565;-68
2022/05/10 05:48:46;;;;;;;4.05;2.42;;;14.60;56.70;;;;;;624158;229;26563;-68
2022/05/10 05:51:12;;;;;;;3.35;2.53;;;14.70;60.30;;;;;;625345;229;26567;-68
2022/05/10 05:53:39;;;;;;;2.67;2.40;;;14.90;58.30;;;;;;622286;229;26825;-69
2022/05/10 05:56:10;;;;;;;2.65;2.40;;;15.00;57.50;;;;;;625060;230;26571;-69
2022/05/10 05:58:36;;;;;;;3.08;2.60;;;15.20;58.00;;;;;;625827;228;26749;-69
2022/05/10 06:01:03;;;;;;;4.07;2.87;;;15.30;58.80;;;;;;625129;229;26559;-69
2022/05/10 06:03:31;;;;;;;2.45;2.28;;;15.40;56.90;;;;;;624566;230;26583;-69
2022/05/10 06:05:59;;;;;;;3.03;2.75;;;15.70;55.70;;;;;;623397;230;26616;-69
2022/05/10 06:08:28;;;;;;;3.10;2.62;;;15.90;55.40;;;;;;621815;230;26565;-69
2022/05/10 06:10:57;;;;;;;4.03;3.10;;;15.90;55.40;;;;;;623204;230;26786;-69
2022/05/10 06:13:22;;;;;;;2.70;2.50;;;16.10;56.20;;;;;;618595;230;26660;-69
2022/05/10 06:15:49;;;;;;;3.15;2.83;;;16.30;58.70;;;;;;619232;230;26856;-69
2022/05/10 06:18:17;;;;;;;4.00;2.67;;;16.50;56.80;;;;;;625644;230;26543;-69
2022/05/10 06:20:45;;;;;;;5.55;2.80;;;16.70;54.70;;;;;;624705;230;26559;-69
2022/05/10 06:23:12;;;;;;;3.20;2.83;;;16.70;54.70;;;;;;625819;227;26570;-69
2022/05/10 06:25:39;;;;;;;3.22;2.55;;;16.80;55.30;;;;;;618886;230;26630;-69
2022/05/10 06:28:06;;;;;;;3.87;2.60;;;16.90;54.10;;;;;;626123;230;26825;-69
2022/05/10 06:30:34;;;;;;;5.43;2.87;;;17.00;54.00;;;;;;626157;230;26561;-69
2022/05/10 06:33:02;;;;;;;2.70;2.50;;;17.00;53.80;;;;;;619865;229;26645;-68
2022/05/10 06:35:30;;;;;;;3.45;2.70;;;17.00;55.50;;;;;;624756;228;26617;-69
2022/05/10 06:40:31;;;;;;;2.58;2.37;;;17.10;55.40;;;;;;626546;229;26621;-69
2022/05/10 06:42:59;;;;;;;3.00;2.70;;;17.30;55.50;;;;;;619818;229;26595;-69
2022/05/10 06:45:27;;;;;;;2.97;2.65;;;17.40;54.10;;;;;;625809;229;26553;-70
2022/05/10 06:47:55;;;;;;;5.15;2.83;;;17.50;56.70;;;;;;626447;229;26620;-69
2022/05/10 06:50:22;;;;;;;3.83;2.83;;;17.60;56.40;;;;;;626428;228;26604;-67
2022/05/10 06:52:50;;;;;;;8.20;2.95;;;17.70;53.40;;;;;;626947;228;26624;-69
2022/05/10 06:55:17;;;;;;;2.55;2.33;;;17.70;54.40;;;;;;626641;228;26964;-68
2022/05/10 06:57:45;;;;;;;3.25;2.70;;;17.70;53.50;;;;;;626756;229;26637;-70
2022/05/10 07:00:14;;;;;;;4.12;2.80;;;17.70;56.10;;;;;;626708;229;26553;-73
2022/05/10 07:02:42;;;;;;;5.45;2.80;;;17.70;53.10;;;;;;626483;228;26610;-68
2022/05/10 07:05:09;;;;;;;4.07;3.00;;;17.60;53.00;;;;;;626509;229;26520;-67
2022/05/10 07:07:37;;;;;;;3.65;2.70;;;17.60;53.60;;;;;;626605;228;26554;-71
2022/05/10 07:10:04;;;;;;;4.75;3.30;;;17.70;53.40;;;;;;626578;229;26816;-69
2022/05/10 07:12:31;;;;;;;39.60;8.05;;;17.70;54.20;;;;;;626276;225;26591;-70
2022/05/10 07:14:59;;;;;;;138.57;26.65;;;18.00;53.60;;;;;;626248;230;27186;-70
2022/05/10 07:17:26;;;;;;;122.30;28.50;;;18.00;53.80;;;;;;626272;230;26764;-70
2022/05/10 07:19:54;;;;;;;127.65;26.45;;;18.20;55.40;;;;;;626223;228;26547;-70
2022/05/10 07:22:21;;;;;;;47.13;11.73;;;18.40;53.40;;;;;;626247;230;26582;-67
2022/05/10 07:24:49;;;;;;;32.53;8.98;;;18.60;53.30;;;;;;626237;230;26797;-68
2022/05/10 07:27:16;;;;;;;22.50;7.37;;;18.80;53.10;;;;;;626243;230;26582;-70
2022/05/10 07:29:44;;;;;;;31.98;9.95;;;19.00;53.90;;;;;;626207;230;26645;-67
2022/05/10 07:32:14;;;;;;;23.70;6.68;;;19.20;53.70;;;;;;626235;230;27127;-67
2022/05/10 07:34:40;;;;;;;18.48;6.18;;;19.40;53.10;;;;;;626517;230;26831;-66
2022/05/10 07:37:07;;;;;;;10.45;4.53;;;19.50;54.10;;;;;;626623;228;26582;-66
2022/05/10 07:39:35;;;;;;;7.72;4.05;;;19.70;52.40;;;;;;626622;228;26828;-66
2022/05/10 07:42:03;;;;;;;14.35;4.90;;;19.90;51.50;;;;;;626572;230;26558;-66
2022/05/10 07:44:29;;;;;;;18.48;6.12;;;20.00;52.60;;;;;;626266;230;26546;-76
2022/05/10 07:46:56;;;;;;;12.73;5.22;;;20.20;51.20;;;;;;626788;227;26554;-78
2022/05/10 07:49:23;;;;;;;19.77;5.10;;;20.40;51.60;;;;;;627761;229;26803;-77
2022/05/10 07:51:51;;;;;;;8.52;3.60;;;20.70;50.70;;;;;;627304;229;26612;-77
2022/05/10 07:54:17;;;;;;;5.90;3.47;;;20.80;50.30;;;;;;627102;229;26567;-77
2022/05/10 07:56:45;;;;;;;3.37;2.92;;;21.00;51.50;;;;;;626957;229;26523;-77
2022/05/10 07:59:15;;;;;;;4.80;2.83;;;21.20;51.70;;;;;;626832;229;26588;-77
2022/05/10 08:01:41;;;;;;;6.12;3.15;;;21.30;49.50;;;;;;626667;229;26629;-78
2022/05/10 08:04:09;;;;;;;2.65;2.45;;;21.40;49.70;;;;;;626847;229;26609;-77
2022/05/10 08:06:37;;;;;;;3.58;2.90;;;21.50;50.30;;;;;;626567;229;26566;-77
2022/05/10 08:09:05;;;;;;;4.82;2.83;;;21.50;50.90;;;;;;619775;229;26563;-77
2022/05/10 08:11:33;;;;;;;5.05;2.78;;;21.50;50.90;;;;;;617730;233;26901;-78
2022/05/10 08:14:00;;;;;;;3.30;2.58;;;21.60;51.20;;;;;;617838;233;26598;-78
2022/05/10 08:16:31;;;;;;;4.93;2.80;;;21.70;48.80;;;;;;617795;233;26804;-78
2022/05/10 08:18:54;;;;;;;5.05;2.97;;;21.60;48.80;;;;;;617736;233;26555;-77
2022/05/10 08:21:21;;;;;;;3.60;2.70;;;21.80;49.00;;;;;;617720;233;26810;-78
2022/05/10 08:23:52;;;;;;;4.62;2.90;;;22.00;48.60;;;;;;617560;233;26577;-78
2022/05/10 08:26:16;;;;;;;2.92;2.60;;;21.90;48.20;;;;;;617327;232;26855;-77
2022/05/10 08:28:45;;;;;;;2.72;2.53;;;21.90;48.90;;;;;;617380;233;26591;-77
2022/05/10 08:31:12;;;;;;;3.00;2.62;;;21.80;48.90;;;;;;617404;233;26614;-79
2022/05/10 08:33:41;;;;;;;2.60;2.40;;;21.80;47.80;;;;;;617394;233;26656;-78
2022/05/10 08:36:08;;;;;;;2.33;2.12;;;21.80;49.30;;;;;;617370;233;26607;-77
2022/05/10 08:38:35;;;;;;;3.08;2.42;;;21.70;48.90;;;;;;617433;233;26970;-79
2022/05/10 08:41:03;;;;;;;2.60;2.40;;;21.80;48.10;;;;;;617406;233;26607;-77
2022/05/10 08:43:32;;;;;;;2.65;2.45;;;21.70;48.40;;;;;;617143;233;26860;-78
2022/05/10 08:46:00;;;;;;;2.75;2.40;;;21.70;49.10;;;;;;617624;233;26831;-78
2022/05/10 08:48:28;;;;;;;4.53;2.22;;;21.70;47.30;;;;;;617852;233;26531;-77
2022/05/10 08:50:55;;;;;;;3.08;2.40;;;21.70;48.50;;;;;;617686;233;26963;-78
2022/05/10 08:53:22;;;;;;;2.25;1.83;;;21.80;48.30;;;;;;617692;233;26630;-78
2022/05/10 08:55:51;;;;;;;4.72;2.37;;;21.80;48.00;;;;;;617813;233;26586;-77
2022/05/10 08:58:21;;;;;;;3.62;2.58;;;21.90;48.10;;;;;;617434;231;26571;-77
2022/05/10 09:00:48;;;;;;;5.82;2.80;;;22.00;47.30;;;;;;618519;232;26618;-77
2022/05/10 09:03:21;;;;;;;3.65;2.40;;;22.00;45.60;;;;;;618386;232;26852;-77
2022/05/10 09:05:49;;;;;;;4.03;2.53;;;22.00;45.50;;;;;;617920;233;26575;-77
2022/05/10 09:08:47;;;;;;;2.83;2.25;;;22.00;45.00;;;;;;618109;233;26890;-78
2022/05/10 09:11:15;;;;;;;1.90;1.80;;;22.10;45.80;;;;;;617717;233;26801;-77
2022/05/10 09:13:42;;;;;;;3.30;2.33;;;22.20;47.30;;;;;;617983;233;26640;-78
2022/05/10 09:16:09;;;;;;;3.67;2.20;;;22.20;44.90;;;;;;617971;233;26832;-78
2022/05/10 09:18:39;;;;;;;2.00;1.90;;;22.20;45.30;;;;;;617718;233;26559;-78
2022/05/10 09:21:23;;;;;;;1.90;1.80;;;22.20;44.90;;;;;;617713;233;26534;-78
2022/05/10 09:23:57;;;;;;;2.45;2.00;;;22.20;44.90;;;;;;617721;233;26603;-77
2022/05/10 09:26:25;;;;;;;2.75;2.20;;;22.20;45.00;;;;;;617235;233;26579;-78
2022/05/10 09:28:58;;;;;;;2.37;2.20;;;22.20;45.10;;;;;;617226;233;26720;-78
2022/05/10 09:36:34;;;;;;;2.15;1.92;;;22.30;43.50;;;;;;617425;233;26617;-78
2022/05/10 09:39:13;;;;;;;3.87;2.42;;;22.30;43.40;;;;;;617414;233;26621;-78
2022/05/10 09:41:41;;;;;;;1.90;1.80;;;22.30;43.30;;;;;;617379;231;26631;-78
2022/05/10 09:44:24;;;;;;;2.70;2.00;;;22.40;44.90;;;;;;617229;233;26617;-78
2022/05/10 09:46:52;;;;;;;2.08;1.80;;;22.40;44.00;;;;;;617435;233;27262;-79
2022/05/10 09:49:29;;;;;;;1.77;1.67;;;22.40;44.40;;;;;;616455;233;26824;-78
2022/05/10 09:51:57;;;;;;;1.75;1.65;;;22.50;45.00;;;;;;617388;233;26591;-78
2022/05/10 09:54:25;;;;;;;2.00;1.90;;;22.60;45.20;;;;;;617386;233;26632;-78
2022/05/10 09:56:55;;;;;;;1.80;1.67;;;22.50;46.80;;;;;;617518;233;26766;-79
2022/05/10 09:59:38;;;;;;;1.83;1.67;;;22.60;46.00;;;;;;617703;233;26821;-78
2022/05/10 10:02:05;;;;;;;3.40;1.90;;;22.70;45.60;;;;;;617708;233;26607;-78
2022/05/10 10:04:34;;;;;;;4.07;2.33;;;22.80;44.50;;;;;;617695;233;26599;-78
2022/05/10 10:07:13;;;;;;;1.92;1.70;;;22.80;44.30;;;;;;617371;233;26610;-78
2022/05/10 10:09:40;;;;;;;1.45;1.35;;;22.90;46.30;;;;;;617235;231;26853;-78
2022/05/10 10:12:16;;;;;;;1.55;1.45;;;22.90;45.00;;;;;;618926;232;26664;-78
2022/05/10 10:14:42;;;;;;;1.17;1.17;;;23.00;46.40;;;;;;618547;232;26626;-78
2022/05/10 10:17:31;;;;;;;1.65;1.55;;;23.10;46.60;;;;;;618281;233;26577;-79
2022/05/10 10:20:06;;;;;;;2.85;2.00;;;23.10;45.90;;;;;;618034;233;26610;-77
2022/05/10 10:22:33;;;;;;;1.90;1.80;;;23.30;44.70;;;;;;617736;233;26589;-77
2022/05/10 10:25:22;;;;;;;1.58;1.50;;;23.40;44.20;;;;;;617774;233;26839;-79
2022/05/10 10:27:50;;;;;;;1.50;1.40;;;23.50;44.40;;;;;;615203;233;26809;-78
2022/05/10 10:30:18;;;;;;;1.92;1.80;;;23.70;45.40;;;;;;617739;233;26562;-78
2022/05/10 10:32:46;;;;;;;1.40;1.37;;;23.80;44.00;;;;;;617613;233;27214;-78
2022/05/10 10:35:32;;;;;;;1.60;1.50;;;24.20;44.50;;;;;;617559;233;26539;-78
2022/05/10 10:37:59;;;;;;;1.80;1.70;;;24.10;44.40;;;;;;613692;233;26578;-78
2022/05/10 10:40:30;;;;;;;1.42;1.40;;;24.30;44.00;;;;;;617478;233;26567;-78
2022/05/10 10:42:58;;;;;;;1.40;1.35;;;24.40;43.50;;;;;;617598;233;26591;-78
2022/05/10 10:45:47;;;;;;;1.80;1.70;;;24.60;44.10;;;;;;617490;233;26561;-78
2022/05/10 10:48:19;;;;;;;1.33;1.23;;;24.70;43.70;;;;;;616580;233;26642;-78
2022/05/10 10:50:47;;;;;;;2.60;1.80;;;24.70;43.90;;;;;;616971;233;26628;-76
2022/05/10 10:53:14;;;;;;;1.70;1.60;;;24.80;43.30;;;;;;617350;232;26630;-78
2022/05/10 10:55:47;;;;;;;1.70;1.60;;;24.70;43.90;;;;;;617298;233;26634;-79
2022/05/10 10:58:21;;;;;;;1.50;1.40;;;24.70;44.00;;;;;;616816;233;26622;-78
2022/05/10 11:00:51;;;;;;;1.60;1.50;;;24.60;43.60;;;;;;617503;233;26799;-78
2022/05/10 11:03:24;;;;;;;1.62;1.52;;;24.50;43.10;;;;;;617607;233;26635;-78
2022/05/10 11:05:54;;;;;;;3.47;1.50;;;24.60;43.20;;;;;;617632;233;26514;-79
2022/05/10 11:08:42;;;;;;;1.77;1.67;;;24.70;43.60;;;;;;617391;233;26533;-78
2022/05/10 11:11:25;;;;;;;6.87;2.40;;;24.70;43.20;;;;;;615223;233;26617;-79
2022/05/10 11:14:02;;;;;;;1.52;1.42;;;24.90;43.10;;;;;;608977;233;26611;-79
2022/05/10 11:16:47;;;;;;;1.33;1.23;;;24.90;43.50;;;;;;617407;233;26810;-79
2022/05/10 11:19:35;;;;;;;1.37;1.20;;;25.20;43.20;;;;;;608521;233;26611;-79
2022/05/10 11:22:09;;;;;;;1.40;1.30;;;25.40;43.50;;;;;;617416;230;27336;-79
2022/05/10 11:24:40;;;;;;;2.33;2.03;;;25.70;43.70;;;;;;618767;232;26599;-78
2022/05/10 11:27:13;;;;;;;1.60;1.50;;;26.10;42.70;;;;;;617904;232;26591;-78
2022/05/10 11:29:56;;;;;;;1.20;1.10;;;26.20;43.70;;;;;;617796;232;26566;-78
2022/05/10 11:32:44;;;;;;;1.37;1.10;;;26.50;43.30;;;;;;614256;233;26647;-78
2022/05/10 11:35:13;;;;;;;1.08;1.08;;;26.90;42.70;;;;;;615205;233;26572;-79
2022/05/10 11:37:41;;;;;;;1.83;1.40;;;27.20;42.10;;;;;;617861;233;26566;-79
2022/05/10 11:40:14;;;;;;;1.60;1.50;;;27.40;42.80;;;;;;617674;233;26584;-79
2022/05/10 11:42:59;;;;;;;1.50;1.30;;;27.40;42.70;;;;;;617641;233;26877;-78
2022/05/10 11:45:33;;;;;;;2.47;2.10;;;27.40;40.90;;;;;;614083;233;26570;-78
2022/05/10 11:48:09;;;;;;;1.20;1.20;;;27.20;40.70;;;;;;617472;233;26554;-78
2022/05/10 11:53:35;;;;;;;1.23;1.17;;;27.50;42.90;;;;;;614803;233;26603;-79
2022/05/10 11:56:02;;;;;;;2.00;1.60;;;27.40;41.10;;;;;;617278;233;26571;-78
2022/05/10 11:58:30;;;;;;;1.37;1.27;;;27.50;41.00;;;;;;617585;233;26980;-78
2022/05/10 12:01:00;;;;;;;1.40;1.30;;;27.40;40.90;;;;;;617365;233;26592;-78
2022/05/10 12:03:51;;;;;;;1.40;1.40;;;27.40;40.90;;;;;;617292;233;26654;-78
2022/05/10 12:06:38;;;;;;;1.58;1.48;;;27.30;40.80;;;;;;617442;233;26607;-78
2022/05/10 12:09:04;;;;;;;1.30;1.30;;;27.50;42.90;;;;;;617714;233;26823;-79
2022/05/10 12:11:37;;;;;;;1.23;1.23;;;27.90;42.40;;;;;;617743;233;26539;-78
2022/05/10 12:22:07;;;;;;;1.70;1.60;;;28.30;40.10;;;;;;616530;231;27327;-78
2022/05/10 12:24:34;;;;;;;1.12;1.12;;;28.30;39.70;;;;;;617446;233;26610;-79
2022/05/10 12:27:01;;;;;;;1.45;1.42;;;28.50;39.70;;;;;;617382;233;26828;-78
2022/05/10 12:29:36;;;;;;;1.20;1.20;;;28.50;39.10;;;;;;616151;233;26629;-78
2022/05/10 12:32:10;;;;;;;1.30;1.30;;;29.00;38.50;;;;;;617365;233;26610;-79
2022/05/10 12:34:40;;;;;;;1.30;1.20;;;29.40;39.40;;;;;;617607;231;26608;-79
2022/05/10 12:37:22;;;;;;;1.30;1.20;;;30.00;38.20;;;;;;618542;232;26609;-79
2022/05/10 12:39:48;;;;;;;1.48;1.37;;;29.70;37.60;;;;;;618248;233;26660;-79
2022/05/10 12:42:20;;;;;;;2.30;1.70;;;29.70;37.30;;;;;;617914;233;26663;-78
2022/05/10 12:44:55;;;;;;;1.80;1.70;;;29.70;37.30;;;;;;617823;233;26528;-80
2022/05/10 12:47:38;;;;;;;1.10;1.10;;;29.40;37.00;;;;;;618021;233;26518;-80
2022/05/10 12:50:21;;;;;;;1.40;1.40;;;29.20;38.10;;;;;;608985;233;27326;-79
2022/05/10 12:52:49;;;;;;;1.52;1.42;;;29.20;38.00;;;;;;617705;233;26558;-79
2022/05/10 12:55:16;;;;;;;1.40;1.30;;;29.50;38.10;;;;;;617698;233;26567;-79
2022/05/10 12:57:54;;;;;;;2.70;2.50;;;29.70;37.00;;;;;;617569;233;26567;-79
2022/05/10 13:00:22;;;;;;;1.87;1.77;;;29.70;37.00;;;;;;617555;233;26804;-78
2022/05/10 13:02:51;;;;;;;1.87;1.45;;;29.70;37.70;;;;;;617596;233;26575;-78
2022/05/10 13:05:18;;;;;;;1.50;1.40;;;30.00;38.20;;;;;;617577;233;26806;-79
2022/05/10 13:08:00;;;;;;;2.60;2.37;;;30.40;36.40;;;;;;617570;233;26558;-78
2022/05/10 13:10:25;;;;;;;3.03;2.83;;;30.90;36.60;;;;;;617112;233;27297;-79
2022/05/10 13:12:53;;;;;;;5.30;2.78;;;30.90;35.60;;;;;;617331;233;26629;-81
2022/05/10 13:15:20;;;;;;;2.75;1.95;;;31.10;35.70;;;;;;617464;233;26844;-79
2022/05/10 13:17:48;;;;;;;2.15;2.05;;;31.00;35.30;;;;;;617393;233;26604;-79
2022/05/10 13:20:15;;;;;;;1.50;1.40;;;31.00;35.20;;;;;;619605;230;26653;-79